createdAt,value
2019-02-25T00:03:04.674Z,2.6
2019-02-25T00:08:04.915Z,2.5
2019-02-25T00:12:27.989Z,2.5
2019-02-25T00:17:28.554Z,2.5
2019-02-25T00:22:27.796Z,2.4
2019-02-25T00:27:27.622Z,2.5
2019-02-25T00:32:27.747Z,2.5
2019-02-25T00:37:28.286Z,2.4
2019-02-25T00:42:27.700Z,2.4
2019-02-25T00:47:29.091Z,2.4
2019-02-25T00:52:27.487Z,2.4
2019-02-25T00:57:28.215Z,2.4
2019-02-25T01:02:28.215Z,2.4
2019-02-25T01:07:28.453Z,2.4
2019-02-25T01:12:27.585Z,2.3
2019-02-25T01:17:28.341Z,2.3
2019-02-25T01:22:27.722Z,2.3
2019-02-25T01:27:28.092Z,2.1
2019-02-25T01:32:28.311Z,2.1
2019-02-25T01:37:27.455Z,2.1
2019-02-25T01:42:27.614Z,2.0
2019-02-25T01:47:28.119Z,2.0
2019-02-25T01:52:27.221Z,2.0
2019-02-25T01:57:27.396Z,1.9
2019-02-25T02:02:27.946Z,1.9
2019-02-25T02:07:27.927Z,1.8
2019-02-25T02:12:28.242Z,1.8
2019-02-25T02:17:27.816Z,1.8
2019-02-25T02:22:27.753Z,1.9
2019-02-25T02:27:29.201Z,1.9
2019-02-25T02:32:28.400Z,1.9
2019-02-25T02:37:27.747Z,1.9
2019-02-25T02:42:27.562Z,1.9
2019-02-25T02:47:28.550Z,1.9
2019-02-25T02:52:28.025Z,1.8
2019-02-25T02:57:27.504Z,1.8
2019-02-25T03:02:28.165Z,1.8
2019-02-25T03:07:27.924Z,1.7
2019-02-25T03:12:27.418Z,1.7
2019-02-25T03:17:29.503Z,1.6
2019-02-25T03:22:27.084Z,1.6
2019-02-25T03:27:27.072Z,1.5
2019-02-25T03:32:28.040Z,1.4
2019-02-25T03:37:27.884Z,1.3
2019-02-25T03:42:28.622Z,1.3
2019-02-25T03:47:29.362Z,1.3
2019-02-25T03:52:28.587Z,1.3
2019-02-25T03:57:27.818Z,1.3
2019-02-25T04:02:28.273Z,1.4
2019-02-25T04:07:28.255Z,1.4
2019-02-25T04:12:27.827Z,1.4
2019-02-25T04:17:28.928Z,1.4
2019-02-25T04:22:27.845Z,1.3
2019-02-25T04:27:28.258Z,1.2
2019-02-25T04:32:28.072Z,1.1
2019-02-25T04:37:27.761Z,1.0
2019-02-25T04:42:27.682Z,0.9
2019-02-25T04:47:28.894Z,1.0
2019-02-25T04:52:27.664Z,1.0
2019-02-25T04:57:27.366Z,1.1
2019-02-25T05:02:28.013Z,1.0
2019-02-25T05:07:27.712Z,1.1
2019-02-25T05:12:28.310Z,1.0
2019-02-25T05:17:27.855Z,1.0
2019-02-25T05:22:27.984Z,1.0
2019-02-25T05:27:27.500Z,1.1
2019-02-25T05:32:28.326Z,1.1
2019-02-25T05:37:28.401Z,1.2
2019-02-25T05:42:28.618Z,1.1
2019-02-25T05:47:28.352Z,1.0
2019-02-25T05:52:29.013Z,1.0
2019-02-25T05:57:29.110Z,1.0
2019-02-25T06:02:28.452Z,1.0
2019-02-25T06:07:28.596Z,0.9
2019-02-25T06:12:28.357Z,0.9
2019-02-25T06:17:28.421Z,0.9
2019-02-25T06:22:28.795Z,0.9
2019-02-25T06:27:30.818Z,0.9
2019-02-25T06:32:28.234Z,0.9
2019-02-25T06:37:28.951Z,0.9
2019-02-25T06:42:29.019Z,1.0
2019-02-25T06:47:28.630Z,1.3
2019-02-25T06:52:28.396Z,1.3
2019-02-25T06:57:28.944Z,1.8
2019-02-25T07:02:28.806Z,1.8
2019-02-25T07:07:29.297Z,2.1
2019-02-25T07:12:28.336Z,2.4
2019-02-25T07:17:28.566Z,3.0
2019-02-25T07:22:28.237Z,2.9
2019-02-25T07:27:28.693Z,3.3
2019-02-25T07:32:29.982Z,3.5
2019-02-25T07:37:28.303Z,3.8
2019-02-25T07:42:28.773Z,4.3
2019-02-25T07:47:28.732Z,4.2
2019-02-25T07:52:28.114Z,4.8
2019-02-25T07:57:28.782Z,4.7
2019-02-25T08:02:28.368Z,5.1
2019-02-25T08:07:28.461Z,5.6
2019-02-25T08:12:28.052Z,5.5
2019-02-25T08:17:29.483Z,5.9
2019-02-25T08:22:29.903Z,6.2
2019-02-25T08:27:28.589Z,6.5
2019-02-25T08:32:28.431Z,6.7
2019-02-25T08:37:28.582Z,7.0
2019-02-25T08:42:28.678Z,7.3
2019-02-25T08:47:28.619Z,7.6
2019-02-25T08:52:28.758Z,7.9
2019-02-25T08:57:28.613Z,8.1
2019-02-25T09:02:29.179Z,8.5
2019-02-25T09:07:28.091Z,9.1
2019-02-25T09:12:28.538Z,9.0
2019-02-25T09:17:28.901Z,9.4
2019-02-25T09:22:29.207Z,10.2
2019-02-25T09:27:28.301Z,10.1
2019-02-25T09:32:29.688Z,10.5
2019-02-25T09:37:29.106Z,10.9
2019-02-25T09:42:28.326Z,11.3
2019-02-25T09:47:28.832Z,11.8
2019-02-25T09:52:28.808Z,12.2
2019-02-25T09:57:28.349Z,13.0
2019-02-25T10:02:28.672Z,13.0
2019-02-25T10:07:29.230Z,13.5
2019-02-25T10:12:28.570Z,13.9
2019-02-25T10:17:29.525Z,14.3
2019-02-25T10:22:28.425Z,14.6
2019-02-25T10:27:29.213Z,15.0
2019-02-25T10:32:29.817Z,15.5
2019-02-25T10:37:28.408Z,15.8
2019-02-25T10:42:29.402Z,16.1
2019-02-25T10:47:29.935Z,16.6
2019-02-25T10:52:28.186Z,16.9
2019-02-25T10:57:29.767Z,17.2
2019-02-25T11:02:28.774Z,17.5
2019-02-25T11:07:28.433Z,18.1
2019-02-25T11:12:29.875Z,18.1
2019-02-25T11:17:28.684Z,18.5
2019-02-25T11:22:27.963Z,19.1
2019-02-25T11:27:28.994Z,19.0
2019-02-25T11:32:28.793Z,19.2
2019-02-25T11:37:29.067Z,19.7
2019-02-25T11:42:29.434Z,19.7
2019-02-25T11:47:28.701Z,20.0
2019-02-25T11:52:28.655Z,20.2
2019-02-25T11:57:28.035Z,20.4
2019-02-25T12:02:29.017Z,20.6
2019-02-25T12:07:28.219Z,20.8
2019-02-25T12:12:28.222Z,21.1
2019-02-25T12:17:29.325Z,21.3
2019-02-25T12:22:28.026Z,21.5
2019-02-25T12:27:28.867Z,21.7
2019-02-25T12:32:28.854Z,21.9
2019-02-25T12:37:28.045Z,22.2
2019-02-25T12:42:28.074Z,22.2
2019-02-25T12:47:28.089Z,22.4
2019-02-25T12:52:28.538Z,22.5
2019-02-25T12:57:28.114Z,22.7
2019-02-25T13:02:29.189Z,22.8
2019-02-25T13:07:28.367Z,23.0
2019-02-25T13:12:28.430Z,23.4
2019-02-25T13:17:28.945Z,23.3
2019-02-25T13:22:27.885Z,23.8
2019-02-25T13:27:28.560Z,23.7
2019-02-25T13:32:29.065Z,23.7
2019-02-25T13:37:28.973Z,23.8
2019-02-25T13:42:28.593Z,23.8
2019-02-25T13:47:28.296Z,24.1
2019-02-25T13:52:29.181Z,24.3
2019-02-25T13:57:28.421Z,24.6
2019-02-25T14:02:28.999Z,25.1
2019-02-25T14:07:28.591Z,26.0
2019-02-25T14:12:27.961Z,25.9
2019-02-25T14:17:28.492Z,27.1
2019-02-25T14:22:27.855Z,27.1
2019-02-25T14:27:29.546Z,27.7
2019-02-25T14:32:29.951Z,29.9
2019-02-25T14:37:28.565Z,29.9
2019-02-25T14:42:30.551Z,32.2
2019-02-25T14:47:32.663Z,32.1
2019-02-25T14:52:29.263Z,33.4
2019-02-25T14:57:29.215Z,34.8
2019-02-25T15:02:29.135Z,36.6
2019-02-25T15:07:29.325Z,36.6
2019-02-25T15:12:29.358Z,37.3
2019-02-25T15:17:29.167Z,37.9
2019-02-25T15:22:30.120Z,38.5
2019-02-25T15:27:29.075Z,39.1
2019-02-25T15:32:29.500Z,39.4
2019-02-25T15:37:28.850Z,39.4
2019-02-25T15:42:28.305Z,40.0
2019-02-25T15:47:28.828Z,40.0
2019-02-25T15:52:29.334Z,40.1
2019-02-25T15:57:28.876Z,40.4
2019-02-25T16:02:28.047Z,39.6
2019-02-25T16:07:29.791Z,39.6
2019-02-25T16:12:29.199Z,39.3
2019-02-25T16:17:29.019Z,39.2
2019-02-25T16:22:29.813Z,39.2
2019-02-25T16:27:28.484Z,38.7
2019-02-25T16:32:28.745Z,38.1
2019-02-25T16:37:29.025Z,37.0
2019-02-25T16:42:30.166Z,35.0
2019-02-25T16:47:32.697Z,33.5
2019-02-25T16:52:28.758Z,33.5
2019-02-25T16:57:30.087Z,31.1
2019-02-25T17:02:30.088Z,28.1
2019-02-25T17:07:28.674Z,23.9
2019-02-25T17:12:29.497Z,23.8
2019-02-25T17:17:29.327Z,22.4
2019-02-25T17:22:29.937Z,21.2
2019-02-25T17:27:28.330Z,20.2
2019-02-25T17:32:28.262Z,19.2
2019-02-25T17:37:29.218Z,18.4
2019-02-25T17:42:28.950Z,17.1
2019-02-25T17:47:28.787Z,17.0
2019-02-25T17:52:28.653Z,16.5
2019-02-25T17:57:29.796Z,16.0
2019-02-25T18:02:29.565Z,15.5
2019-02-25T18:07:28.219Z,14.6
2019-02-25T18:12:29.614Z,14.3
2019-02-25T18:17:28.561Z,14.0
2019-02-25T18:22:30.261Z,13.9
2019-02-25T18:27:28.217Z,13.7
2019-02-25T18:32:28.522Z,13.5
2019-02-25T18:37:27.120Z,13.2
2019-02-25T18:42:28.032Z,12.7
2019-02-25T18:47:27.886Z,12.6
2019-02-25T18:52:29.533Z,12.5
2019-02-25T18:57:29.360Z,12.2
2019-02-25T19:02:27.425Z,11.9
2019-02-25T19:07:29.243Z,11.7
2019-02-25T19:12:28.197Z,11.4
2019-02-25T19:17:29.349Z,11.0
2019-02-25T19:22:27.742Z,11.0
2019-02-25T19:27:29.457Z,10.9
2019-02-25T19:32:28.063Z,10.5
2019-02-25T19:37:29.463Z,10.4
2019-02-25T19:42:29.467Z,10.3
2019-02-25T19:47:28.453Z,10.1
2019-02-25T19:52:30.640Z,9.9
2019-02-25T19:57:29.024Z,9.7
2019-02-25T20:02:29.639Z,9.6
2019-02-25T20:07:30.887Z,9.4
2019-02-25T20:12:27.324Z,9.2
2019-02-25T20:17:28.697Z,9.1
2019-02-25T20:22:30.038Z,8.7
2019-02-25T20:27:27.910Z,8.7
2019-02-25T20:32:28.558Z,8.6
2019-02-25T20:37:29.344Z,8.6
2019-02-25T20:42:28.595Z,8.3
2019-02-25T20:47:28.636Z,8.2
2019-02-25T20:52:28.339Z,8.2
2019-02-25T20:57:29.532Z,8.1
2019-02-25T21:02:28.299Z,8.0
2019-02-25T21:07:29.656Z,8.0
2019-02-25T21:12:28.314Z,7.9
2019-02-25T21:17:28.498Z,7.7
2019-02-25T21:22:29.179Z,7.6
2019-02-25T21:27:30.079Z,7.4
2019-02-25T21:32:28.716Z,7.3
2019-02-25T21:37:29.323Z,7.2
2019-02-25T21:42:27.720Z,7.1
2019-02-25T21:47:28.681Z,7.1
2019-02-25T21:52:27.710Z,6.9
2019-02-25T21:57:28.748Z,6.9
2019-02-25T22:02:28.621Z,6.7
2019-02-25T22:07:31.081Z,6.6
2019-02-25T22:12:29.318Z,6.5
2019-02-25T22:17:27.686Z,6.4
2019-02-25T22:22:28.722Z,6.4
2019-02-25T22:27:28.318Z,6.3
2019-02-25T22:32:27.712Z,6.2
2019-02-25T22:37:29.244Z,6.1
2019-02-25T22:42:29.704Z,6.0
2019-02-25T22:47:28.400Z,5.9
2019-02-25T22:52:29.196Z,5.5
2019-02-25T22:57:29.595Z,5.4
2019-02-25T23:02:28.265Z,5.4
2019-02-25T23:07:28.402Z,5.3
2019-02-25T23:12:28.930Z,5.2
2019-02-25T23:23:06.602Z,4.9
2019-02-25T23:28:04.343Z,4.8
2019-02-25T23:33:04.503Z,4.9
2019-02-25T23:38:04.268Z,4.9
2019-02-25T23:43:05.633Z,5.0
2019-02-25T23:48:06.255Z,4.9
2019-02-25T23:53:04.136Z,4.9
2019-02-25T23:58:08.086Z,4.8
